Time;durP1;ratioP1;P1;durP2;ratioP2;P2;SDS_P1;SDS_P2;PMS_P1;PMS_P2;Temp;Humidity;BMP_temperature;BMP_pressure;BME280_temperature;BME280_humidity;BME280_pressure;Samples;Min_cycle;Max_cycle;Signal;HPM_P1;HPM_P2
2023/08/01 00:00:44;;;;;;;7.00;5.15;;;16.80;99.90;;;;;;4961560;28;20495;-71
2023/08/01 00:03:13;;;;;;;6.30;4.95;;;16.90;99.90;;;;;;4936216;28;20035;-72
2023/08/01 00:05:44;;;;;;;8.25;5.55;;;16.90;99.90;;;;;;4952974;28;20503;-72
2023/08/01 00:08:14;;;;;;;7.07;5.27;;;16.80;99.90;;;;;;4916245;28;20045;-73
2023/08/01 00:10:41;;;;;;;11.63;7.70;;;16.90;99.90;;;;;;4921799;28;20035;-72
2023/08/01 00:13:08;;;;;;;12.70;8.32;;;16.80;99.90;;;;;;4954214;28;20365;-73
2023/08/01 00:15:35;;;;;;;11.98;8.82;;;16.80;99.90;;;;;;4965221;28;20037;-72
2023/08/01 00:18:02;;;;;;;11.23;6.95;;;16.80;99.90;;;;;;4955768;28;20034;-73
2023/08/01 00:20:28;;;;;;;9.13;5.80;;;16.70;99.90;;;;;;4932827;28;20375;-72
2023/08/01 00:22:55;;;;;;;8.80;4.80;;;16.60;99.90;;;;;;4934341;28;20027;-72
2023/08/01 00:25:21;;;;;;;4.53;3.65;;;16.60;99.90;;;;;;4953114;28;20043;-73
2023/08/01 00:27:47;;;;;;;5.30;3.50;;;16.50;99.90;;;;;;4921307;28;20043;-72
2023/08/01 00:30:14;;;;;;;4.50;3.33;;;16.50;99.90;;;;;;4938830;28;20043;-72
2023/08/01 00:32:42;;;;;;;5.20;3.15;;;16.50;99.90;;;;;;4919728;28;20433;-72
2023/08/01 00:35:08;;;;;;;4.13;2.75;;;16.50;99.90;;;;;;4953127;28;20046;-73
2023/08/01 00:37:35;;;;;;;8.68;3.83;;;16.40;99.90;;;;;;4919939;28;20044;-73
2023/08/01 00:40:01;;;;;;;5.97;3.30;;;16.40;99.90;;;;;;4902889;28;20031;-73
2023/08/01 00:42:27;;;;;;;3.13;2.40;;;16.40;99.90;;;;;;4931245;28;20038;-72
2023/08/01 00:44:54;;;;;;;4.90;2.75;;;16.30;99.90;;;;;;4934557;28;20035;-72
2023/08/01 00:47:20;;;;;;;3.92;2.40;;;16.30;99.90;;;;;;4919851;28;20051;-72
2023/08/01 00:49:47;;;;;;;5.72;3.03;;;16.30;99.90;;;;;;4919631;28;20050;-71
2023/08/01 00:52:13;;;;;;;4.57;2.95;;;16.30;99.90;;;;;;4925718;28;20039;-74
2023/08/01 00:54:40;;;;;;;5.13;3.35;;;16.20;99.90;;;;;;4922304;28;20039;-70
2023/08/01 00:57:07;;;;;;;7.95;2.90;;;16.20;99.90;;;;;;4922379;28;20046;-70
2023/08/01 00:59:34;;;;;;;4.68;3.03;;;16.20;99.90;;;;;;4951676;28;20034;-70
2023/08/01 01:02:01;;;;;;;3.65;2.58;;;16.20;99.90;;;;;;4936706;28;20031;-73
2023/08/01 01:04:28;;;;;;;3.45;2.42;;;16.20;99.90;;;;;;4934818;28;20229;-72
2023/08/01 01:06:59;;;;;;;6.03;3.10;;;16.20;99.90;;;;;;4919634;28;20524;-72
2023/08/01 01:09:28;;;;;;;5.18;3.35;;;16.20;99.90;;;;;;4921996;28;20050;-73
2023/08/01 01:11:55;;;;;;;5.82;3.35;;;16.20;99.90;;;;;;4922522;28;20046;-73
2023/08/01 01:14:21;;;;;;;5.75;3.30;;;16.20;99.90;;;;;;4923364;28;20038;-72
2023/08/01 01:16:47;;;;;;;4.10;2.85;;;16.30;99.90;;;;;;4936005;28;20042;-73
2023/08/01 01:19:15;;;;;;;5.53;3.47;;;16.30;99.90;;;;;;4951350;28;20039;-73
2023/08/01 01:21:42;;;;;;;5.13;3.03;;;16.20;99.90;;;;;;4938718;28;20754;-72
2023/08/01 01:24:13;;;;;;;4.95;3.63;;;16.30;99.90;;;;;;4940008;28;20039;-73
2023/08/01 01:26:41;;;;;;;6.88;3.33;;;16.20;99.90;;;;;;4949761;28;20034;-73
2023/08/01 01:29:08;;;;;;;6.03;3.70;;;16.20;99.90;;;;;;4937581;28;20031;-72
2023/08/01 01:31:36;;;;;;;7.78;4.18;;;16.20;99.90;;;;;;4949634;28;20889;-73
2023/08/01 01:34:03;;;;;;;6.68;3.33;;;16.20;99.90;;;;;;4952204;28;20034;-73
2023/08/01 01:36:30;;;;;;;4.38;2.20;;;16.10;99.90;;;;;;4951565;28;20030;-73
2023/08/01 01:38:56;;;;;;;6.15;2.70;;;16.10;99.90;;;;;;4925779;28;20034;-73
2023/08/01 01:41:23;;;;;;;2.92;2.50;;;16.10;99.90;;;;;;4936518;28;20555;-72
2023/08/01 01:43:49;;;;;;;2.95;2.33;;;16.10;99.90;;;;;;4925350;28;20579;-73
2023/08/01 01:46:16;;;;;;;3.92;2.45;;;16.10;99.90;;;;;;4935592;28;20038;-72
2023/08/01 01:48:42;;;;;;;5.95;2.35;;;16.00;99.90;;;;;;4929439;28;20051;-73
2023/08/01 01:51:09;;;;;;;3.45;2.70;;;16.00;99.90;;;;;;4925617;28;20688;-73
2023/08/01 01:53:35;;;;;;;6.65;3.42;;;16.00;99.90;;;;;;4958366;28;20553;-73
2023/08/01 01:56:02;;;;;;;3.60;2.72;;;15.90;99.90;;;;;;4942498;28;20484;-72
2023/08/01 01:58:28;;;;;;;6.22;3.60;;;15.90;99.90;;;;;;4923968;28;20288;-72
2023/08/01 02:00:54;;;;;;;5.00;4.03;;;15.90;99.90;;;;;;4947352;28;20042;-72
2023/08/01 02:03:21;;;;;;;7.43;5.10;;;15.80;99.90;;;;;;4923329;28;20050;-72
2023/08/01 02:05:48;;;;;;;7.88;5.90;;;15.80;99.90;;;;;;4939248;28;20467;-72
2023/08/01 02:08:14;;;;;;;8.68;6.53;;;15.70;99.90;;;;;;4965662;28;20031;-72
2023/08/01 02:10:41;;;;;;;7.70;5.30;;;15.60;99.90;;;;;;4941270;28;20046;-72
2023/08/01 02:13:08;;;;;;;5.70;3.80;;;15.60;99.90;;;;;;4958140;28;20046;-72
2023/08/01 02:15:35;;;;;;;8.18;6.00;;;15.50;99.90;;;;;;4940286;28;21529;-72
2023/08/01 02:18:01;;;;;;;5.57;4.50;;;15.50;99.90;;;;;;4937764;28;20043;-72
2023/08/01 02:20:28;;;;;;;6.43;4.45;;;15.40;99.90;;;;;;4940347;28;20045;-72
2023/08/01 02:22:55;;;;;;;8.27;5.20;;;15.50;99.90;;;;;;4923948;28;20406;-72
2023/08/01 02:25:21;;;;;;;7.53;5.53;;;15.40;99.90;;;;;;4924780;28;20083;-72
2023/08/01 02:27:48;;;;;;;11.07;6.80;;;15.40;99.90;;;;;;4940635;28;20039;-72
2023/08/01 02:30:15;;;;;;;9.52;6.85;;;15.40;99.90;;;;;;4924886;28;20045;-72
2023/08/01 02:32:43;;;;;;;11.07;5.95;;;15.40;99.90;;;;;;4923967;28;20030;-72
2023/08/01 02:35:09;;;;;;;12.82;7.70;;;15.30;99.90;;;;;;4957244;28;20466;-72
2023/08/01 02:37:36;;;;;;;10.23;5.18;;;15.30;99.90;;;;;;4956747;28;20114;-72
2023/08/01 02:40:08;;;;;;;6.82;4.90;;;15.30;99.90;;;;;;4957403;28;20221;-72
2023/08/01 02:42:34;;;;;;;9.02;5.78;;;15.30;99.90;;;;;;4940337;28;20026;-72
2023/08/01 02:45:00;;;;;;;7.78;5.90;;;15.30;99.90;;;;;;4940061;28;20565;-72
2023/08/01 02:47:27;;;;;;;9.98;6.10;;;15.20;99.90;;;;;;4940184;28;20030;-72
2023/08/01 02:49:53;;;;;;;9.38;5.30;;;15.20;99.90;;;;;;4968527;28;20046;-72
2023/08/01 02:52:19;;;;;;;9.77;5.32;;;15.20;99.90;;;;;;4940399;28;20057;-72
2023/08/01 02:54:46;;;;;;;6.00;4.28;;;15.20;99.90;;;;;;4941674;28;20035;-72
2023/08/01 02:57:12;;;;;;;7.25;4.45;;;15.20;99.90;;;;;;4939705;28;20029;-72
2023/08/01 02:59:38;;;;;;;7.72;5.22;;;15.20;99.90;;;;;;4948575;28;20039;-72
2023/08/01 03:02:05;;;;;;;9.07;5.30;;;15.20;99.90;;;;;;4923249;28;20046;-72
2023/08/01 03:04:31;;;;;;;10.57;5.47;;;15.20;99.90;;;;;;4937395;28;20027;-72
2023/08/01 03:06:58;;;;;;;12.38;6.68;;;15.20;99.90;;;;;;4958087;28;20018;-72
2023/08/01 03:09:24;;;;;;;9.93;6.40;;;15.30;99.90;;;;;;4922740;28;20034;-72
2023/08/01 03:11:50;;;;;;;11.10;7.22;;;15.30;99.90;;;;;;4924851;28;20529;-72
2023/08/01 03:14:17;;;;;;;10.43;7.60;;;15.30;99.90;;;;;;4921724;28;20049;-72
2023/08/01 03:16:43;;;;;;;12.07;6.70;;;15.30;99.90;;;;;;4949097;28;20043;-71
2023/08/01 03:19:09;;;;;;;13.88;7.35;;;15.30;99.90;;;;;;4940683;28;20035;-72
2023/08/01 03:21:36;;;;;;;13.63;8.02;;;15.40;99.90;;;;;;4921593;28;20042;-71
2023/08/01 03:24:04;;;;;;;10.90;6.45;;;15.40;99.90;;;;;;4922580;28;20047;-71
2023/08/01 03:26:30;;;;;;;9.88;6.90;;;15.40;99.90;;;;;;4954421;28;20042;-72
2023/08/01 03:28:56;;;;;;;9.35;5.68;;;15.50;99.90;;;;;;4920839;28;20406;-72
2023/08/01 03:31:23;;;;;;;8.25;6.35;;;15.50;99.90;;;;;;4936734;28;20043;-71
2023/08/01 03:33:50;;;;;;;15.15;7.70;;;15.50;99.90;;;;;;4938868;28;20053;-71
2023/08/01 03:36:16;;;;;;;10.40;6.75;;;15.50;99.90;;;;;;4937695;28;20061;-72
2023/08/01 03:38:43;;;;;;;14.68;7.40;;;15.50;99.90;;;;;;4941984;28;20421;-71
2023/08/01 03:41:09;;;;;;;16.13;9.70;;;15.50;99.90;;;;;;4934879;28;20034;-71
2023/08/01 03:43:36;;;;;;;15.45;10.02;;;15.50;99.90;;;;;;4963201;28;20035;-72
2023/08/01 03:46:04;;;;;;;13.60;9.68;;;15.60;99.90;;;;;;4937527;28;20046;-72
2023/08/01 03:48:30;;;;;;;16.60;9.77;;;15.60;99.90;;;;;;4937432;28;20046;-72
2023/08/01 03:50:57;;;;;;;18.92;9.73;;;15.70;99.90;;;;;;4938902;28;20385;-72
2023/08/01 03:53:23;;;;;;;16.85;9.68;;;15.70;99.90;;;;;;4908188;28;20358;-71
2023/08/01 03:55:50;;;;;;;13.60;8.82;;;15.80;99.90;;;;;;4938406;28;20034;-72
2023/08/01 03:58:16;;;;;;;12.20;8.25;;;15.80;99.90;;;;;;4921425;28;20037;-71
2023/08/01 04:00:42;;;;;;;16.73;9.60;;;15.80;99.90;;;;;;4939600;28;20019;-72
2023/08/01 04:03:08;;;;;;;19.10;10.32;;;15.80;99.90;;;;;;4939728;28;20351;-71
2023/08/01 04:05:35;;;;;;;16.42;9.50;;;15.90;99.90;;;;;;4942287;28;20034;-71
2023/08/01 04:08:02;;;;;;;15.52;9.05;;;15.90;99.90;;;;;;4940960;28;20035;-71
2023/08/01 04:10:28;;;;;;;15.20;7.60;;;15.90;99.90;;;;;;4936818;28;20031;-71
2023/08/01 04:12:54;;;;;;;11.88;7.07;;;15.90;99.90;;;;;;4933133;28;20545;-71
2023/08/01 04:15:21;;;;;;;23.13;10.82;;;15.90;99.90;;;;;;4940332;28;20035;-71
2023/08/01 04:17:47;;;;;;;16.17;9.02;;;16.00;99.90;;;;;;4954085;28;20035;-71
2023/08/01 04:20:14;;;;;;;12.05;7.07;;;16.00;99.90;;;;;;4964502;28;20053;-71
2023/08/01 04:22:40;;;;;;;17.15;8.68;;;16.00;99.90;;;;;;4924210;28;20026;-72
2023/08/01 04:25:07;;;;;;;13.45;7.38;;;16.00;99.90;;;;;;4947298;28;20042;-71
2023/08/01 04:27:33;;;;;;;18.55;8.90;;;16.00;99.90;;;;;;4963987;28;20038;-72
2023/08/01 04:30:00;;;;;;;15.63;8.15;;;16.00;99.90;;;;;;4939674;28;20046;-72
2023/08/01 04:32:26;;;;;;;14.43;7.45;;;16.00;99.90;;;;;;4938424;28;20046;-72
2023/08/01 04:34:53;;;;;;;15.52;7.85;;;16.00;99.90;;;;;;4939039;28;20046;-71
2023/08/01 04:37:22;;;;;;;15.30;7.45;;;16.00;99.90;;;;;;4937767;28;20609;-72
2023/08/01 04:39:48;;;;;;;14.73;7.53;;;16.10;99.90;;;;;;4948898;28;20042;-72
2023/08/01 04:42:15;;;;;;;16.25;7.32;;;16.10;99.90;;;;;;4953553;28;20030;-71
2023/08/01 04:44:41;;;;;;;11.52;6.57;;;16.10;99.90;;;;;;4956300;28;20039;-71
2023/08/01 04:47:07;;;;;;;15.73;7.78;;;16.00;99.90;;;;;;4956014;28;20038;-71
2023/08/01 04:49:33;;;;;;;13.75;7.22;;;16.10;99.90;;;;;;4939763;28;20038;-71
2023/08/01 04:52:00;;;;;;;20.50;7.85;;;16.10;99.90;;;;;;4955074;28;20035;-71
2023/08/01 04:54:27;;;;;;;17.60;7.28;;;16.10;99.90;;;;;;4935529;28;21262;-71
2023/08/01 04:56:53;;;;;;;12.90;6.32;;;16.10;99.90;;;;;;4921596;28;20030;-73
2023/08/01 04:59:19;;;;;;;13.48;6.90;;;16.10;99.90;;;;;;4934413;28;20031;-72
2023/08/01 05:01:46;;;;;;;12.07;5.55;;;16.00;99.90;;;;;;4954774;28;20035;-72
2023/08/01 05:04:12;;;;;;;17.25;7.53;;;16.00;99.90;;;;;;4953289;28;20062;-72
2023/08/01 05:06:40;;;;;;;11.88;7.53;;;16.00;99.90;;;;;;4954365;28;20034;-72
2023/08/01 05:09:06;;;;;;;14.13;7.90;;;16.00;99.90;;;;;;4946385;28;20035;-72
2023/08/01 05:11:33;;;;;;;15.02;7.13;;;16.00;99.90;;;;;;4905522;28;20494;-71
2023/08/01 05:13:59;;;;;;;16.88;7.13;;;16.00;99.90;;;;;;4953339;28;20049;-72
2023/08/01 05:16:25;;;;;;;14.32;7.40;;;16.00;99.90;;;;;;4951068;28;20043;-73
2023/08/01 05:18:52;;;;;;;21.92;8.80;;;16.00;99.90;;;;;;4955027;28;20046;-73
2023/08/01 05:21:18;;;;;;;19.42;7.18;;;16.00;99.90;;;;;;4934560;28;20034;-72
2023/08/01 05:23:44;;;;;;;18.50;7.68;;;16.10;99.90;;;;;;4956485;28;20027;-73
2023/08/01 05:26:11;;;;;;;10.13;5.22;;;16.10;99.90;;;;;;4924017;28;20066;-72
2023/08/01 05:28:37;;;;;;;13.52;6.47;;;16.00;99.90;;;;;;4925604;28;20494;-72
2023/08/01 05:31:03;;;;;;;16.58;6.70;;;16.00;99.90;;;;;;4955656;28;20039;-72
2023/08/01 05:33:30;;;;;;;19.88;7.97;;;16.10;99.90;;;;;;4925585;28;20444;-73
2023/08/01 05:35:56;;;;;;;13.80;7.05;;;16.20;99.90;;;;;;4939941;28;20487;-73
2023/08/01 05:38:22;;;;;;;15.88;7.15;;;16.20;99.90;;;;;;4955376;28;20047;-72
2023/08/01 05:40:49;;;;;;;13.02;6.57;;;16.20;99.90;;;;;;4926309;28;20043;-73
2023/08/01 05:43:15;;;;;;;19.27;9.63;;;16.20;99.90;;;;;;4947291;28;20110;-74
2023/08/01 05:45:42;;;;;;;16.33;7.18;;;16.30;99.90;;;;;;4937089;28;20046;-73
2023/08/01 05:48:08;;;;;;;13.70;6.82;;;16.40;99.90;;;;;;4956163;28;20475;-73
2023/08/01 05:50:35;;;;;;;15.88;8.35;;;16.50;99.90;;;;;;4941050;28;20042;-72
2023/08/01 05:53:01;;;;;;;13.57;7.57;;;16.50;99.90;;;;;;4958124;28;20305;-73
2023/08/01 05:55:27;;;;;;;16.42;8.25;;;16.60;99.90;;;;;;4928549;28;20413;-72
2023/08/01 05:57:54;;;;;;;16.13;7.13;;;16.60;99.90;;;;;;4959282;28;20062;-73
2023/08/01 06:00:23;;;;;;;18.58;9.95;;;16.60;99.90;;;;;;4951283;28;20425;-72
2023/08/01 06:02:49;;;;;;;23.23;10.13;;;16.60;99.90;;;;;;4953863;28;20433;-73
2023/08/01 06:05:16;;;;;;;18.77;9.25;;;16.70;99.90;;;;;;4943952;28;20042;-73
2023/08/01 06:07:42;;;;;;;12.70;6.95;;;16.80;99.90;;;;;;4952196;28;20374;-72
2023/08/01 06:10:09;;;;;;;14.55;7.65;;;16.90;99.90;;;;;;4941631;28;20043;-72
2023/08/01 06:12:36;;;;;;;11.70;7.10;;;16.90;99.90;;;;;;4946767;28;20054;-71
2023/08/01 06:15:03;;;;;;;15.75;7.93;;;16.90;99.90;;;;;;4963556;28;20038;-72
2023/08/01 06:17:31;;;;;;;14.45;8.02;;;16.80;99.90;;;;;;4973184;28;20031;-72
2023/08/01 06:19:58;;;;;;;19.55;8.85;;;16.80;99.90;;;;;;4939677;28;20046;-73
2023/08/01 06:22:24;;;;;;;14.23;8.18;;;16.80;99.90;;;;;;4924269;28;20107;-73
2023/08/01 06:24:50;;;;;;;17.77;8.13;;;16.70;99.90;;;;;;4939573;28;20397;-72
2023/08/01 06:27:17;;;;;;;12.35;6.13;;;16.80;99.90;;;;;;4940176;28;20540;-73
2023/08/01 06:29:44;;;;;;;12.07;6.53;;;16.80;99.90;;;;;;4953940;28;20042;-73
2023/08/01 06:32:10;;;;;;;12.85;6.70;;;16.90;99.90;;;;;;4955905;28;20049;-73
2023/08/01 06:34:37;;;;;;;14.82;6.80;;;16.90;99.90;;;;;;4934625;28;20042;-71
2023/08/01 06:37:03;;;;;;;12.38;7.15;;;16.90;99.90;;;;;;4956055;28;20035;-72
2023/08/01 06:39:30;;;;;;;13.57;6.60;;;16.90;99.90;;;;;;4954281;28;20057;-72
2023/08/01 06:41:56;;;;;;;12.20;6.40;;;16.90;99.90;;;;;;4937117;28;20045;-72
2023/08/01 06:44:23;;;;;;;16.65;6.30;;;16.90;99.90;;;;;;4938383;28;20039;-71
2023/08/01 06:46:50;;;;;;;7.32;5.00;;;17.00;99.90;;;;;;4957930;28;20042;-71
2023/08/01 06:49:16;;;;;;;11.35;5.35;;;17.10;99.90;;;;;;4940776;28;20398;-72
2023/08/01 06:51:42;;;;;;;12.68;5.90;;;17.20;99.90;;;;;;4957239;28;20042;-72
2023/08/01 06:54:09;;;;;;;9.73;5.57;;;17.30;99.90;;;;;;4963490;28;20035;-71
2023/08/01 06:56:35;;;;;;;9.35;5.10;;;17.40;99.90;;;;;;4954157;28;20034;-71
2023/08/01 06:59:01;;;;;;;10.80;5.57;;;17.50;99.90;;;;;;4955426;28;20930;-71
2023/08/01 07:01:28;;;;;;;9.00;5.35;;;17.50;99.90;;;;;;4938427;28;20042;-71
2023/08/01 07:03:55;;;;;;;10.07;5.55;;;17.50;99.90;;;;;;4940969;28;20035;-71
2023/08/01 07:06:23;;;;;;;12.98;5.53;;;17.50;99.90;;;;;;4921593;28;20058;-71
2023/08/01 07:08:51;;;;;;;10.90;5.85;;;17.60;99.90;;;;;;4938447;28;20043;-72
2023/08/01 07:11:18;;;;;;;9.55;4.85;;;17.70;99.90;;;;;;4954730;28;20054;-71
2023/08/01 07:13:45;;;;;;;7.88;4.53;;;17.70;99.90;;;;;;4940911;28;20050;-71
2023/08/01 07:16:11;;;;;;;14.57;6.28;;;17.70;99.90;;;;;;4940845;28;20034;-71
2023/08/01 07:18:37;;;;;;;13.35;4.50;;;17.80;99.90;;;;;;4921418;28;20026;-71
2023/08/01 07:21:04;;;;;;;10.45;4.18;;;17.80;99.90;;;;;;4936956;28;20053;-72
2023/08/01 07:23:34;;;;;;;10.75;4.63;;;17.90;99.90;;;;;;4963790;28;20042;-72
2023/08/01 07:26:00;;;;;;;10.10;4.38;;;17.90;99.90;;;;;;4937535;28;20071;-71
2023/08/01 07:28:26;;;;;;;9.30;4.97;;;18.00;99.90;;;;;;4955419;28;20061;-71
2023/08/01 07:31:05;;;;;;;12.73;4.75;;;18.10;99.90;;;;;;4926423;28;20050;-71
2023/08/01 07:33:32;;;;;;;10.88;4.65;;;18.10;99.90;;;;;;4941361;28;20031;-72
2023/08/01 07:35:59;;;;;;;9.85;4.07;;;18.00;99.90;;;;;;4939395;28;20038;-72
2023/08/01 07:38:26;;;;;;;12.95;3.90;;;18.00;99.90;;;;;;4955124;28;20038;-71
2023/08/01 07:40:55;;;;;;;10.18;3.28;;;18.10;99.90;;;;;;4906690;28;20046;-71
2023/08/01 07:43:21;;;;;;;8.23;3.17;;;18.10;99.90;;;;;;4935017;28;20039;-71
2023/08/01 07:45:50;;;;;;;8.43;2.63;;;18.30;99.90;;;;;;4925718;28;20046;-71
2023/08/01 07:48:16;;;;;;;9.25;3.20;;;18.40;99.90;;;;;;4941529;28;20042;-72
2023/08/01 07:50:43;;;;;;;10.35;3.45;;;18.50;99.90;;;;;;4935977;28;20035;-71
2023/08/01 07:53:09;;;;;;;8.55;3.28;;;18.70;99.90;;;;;;4939531;28;20376;-71
2023/08/01 07:55:36;;;;;;;11.20;2.55;;;18.80;99.90;;;;;;4925090;28;20046;-72
2023/08/01 07:58:02;;;;;;;6.00;3.00;;;19.00;99.90;;;;;;4957370;28;20834;-72
2023/08/01 08:00:29;;;;;;;9.48;3.10;;;19.10;99.90;;;;;;4957528;28;20042;-72
2023/08/01 08:02:55;;;;;;;8.88;2.55;;;19.20;99.90;;;;;;4937753;28;21370;-71
2023/08/01 08:05:21;;;;;;;7.32;2.47;;;19.40;99.90;;;;;;4934996;28;20127;-72
2023/08/01 08:07:48;;;;;;;6.95;2.25;;;19.60;99.90;;;;;;4947805;28;20046;-71
2023/08/01 08:10:15;;;;;;;6.13;2.42;;;19.70;99.90;;;;;;4952788;28;20497;-71
2023/08/01 08:12:41;;;;;;;8.68;2.15;;;19.60;99.90;;;;;;4941409;28;20482;-71
2023/08/01 08:15:08;;;;;;;7.72;2.15;;;19.60;99.90;;;;;;4938159;28;20038;-71
2023/08/01 08:17:34;;;;;;;9.38;2.22;;;19.60;99.90;;;;;;4954271;28;20030;-71
2023/08/01 08:20:01;;;;;;;10.13;2.28;;;19.60;99.90;;;;;;4939118;28;20026;-71
2023/08/01 08:22:27;;;;;;;6.35;2.00;;;19.70;99.90;;;;;;4964150;28;20492;-71
2023/08/01 08:24:54;;;;;;;5.68;2.28;;;19.60;99.90;;;;;;4939294;28;20564;-71
2023/08/01 08:27:20;;;;;;;9.60;2.97;;;19.40;99.90;;;;;;4948752;28;20466;-72
2023/08/01 08:29:47;;;;;;;7.07;2.30;;;19.10;99.90;;;;;;4922101;28;20037;-72
2023/08/01 08:32:13;;;;;;;5.57;2.25;;;18.80;99.90;;;;;;4938581;28;20474;-71
2023/08/01 08:34:39;;;;;;;9.07;2.45;;;18.50;99.90;;;;;;4939001;28;20050;-71
2023/08/01 08:37:06;;;;;;;3.42;1.67;;;18.30;99.90;;;;;;4936092;28;20038;-72
2023/08/01 08:39:32;;;;;;;6.50;2.58;;;18.20;99.90;;;;;;4937562;28;20042;-73
2023/08/01 08:41:59;;;;;;;7.32;2.13;;;18.30;99.90;;;;;;4938323;28;20030;-72
2023/08/01 08:44:29;;;;;;;5.03;2.05;;;18.50;99.90;;;;;;4938416;28;20070;-71
2023/08/01 08:47:02;;;;;;;4.85;1.55;;;18.70;99.90;;;;;;4922734;28;20508;-72
2023/08/01 08:49:28;;;;;;;;;;;18.90;99.90;;;;;;4952972;28;20445;-71
2023/08/01 08:51:55;;;;;;;9.27;2.28;;;19.10;99.90;;;;;;4964342;28;19922;-71
2023/08/01 08:54:22;;;;;;;4.00;2.00;;;19.40;99.90;;;;;;4936207;28;20042;-72
2023/08/01 08:56:50;;;;;;;5.75;1.88;;;19.60;99.90;;;;;;4953493;28;20245;-71
2023/08/01 08:59:17;;;;;;;9.23;2.50;;;19.80;99.90;;;;;;4937863;28;20039;-72
2023/08/01 09:01:44;;;;;;;5.82;1.67;;;19.80;99.90;;;;;;4906618;28;20034;-72
2023/08/01 09:04:11;;;;;;;5.15;2.08;;;19.70;99.90;;;;;;4935304;28;20442;-72
2023/08/01 09:06:45;;;;;;;12.82;5.70;;;19.80;99.90;;;;;;4954020;28;20043;-76
2023/08/01 09:09:15;;;;;;;8.95;2.97;;;19.90;99.90;;;;;;4940484;28;20045;-72
2023/08/01 09:11:49;;;;;;;5.78;2.15;;;19.90;99.90;;;;;;4922065;28;20050;-71
2023/08/01 09:14:17;;;;;;;7.35;1.73;;;19.70;99.90;;;;;;4956853;28;20034;-71
2023/08/01 09:16:43;;;;;;;4.22;1.10;;;19.70;99.90;;;;;;4936634;28;20500;-71
2023/08/01 09:19:12;;;;;;;4.50;1.33;;;19.80;99.90;;;;;;4921336;28;20034;-71
2023/08/01 09:21:39;;;;;;;4.85;1.23;;;20.10;99.90;;;;;;4944449;28;20042;-71
2023/08/01 09:24:19;;;;;;;6.88;1.45;;;20.30;99.90;;;;;;4938747;28;20038;-71
2023/08/01 09:26:48;;;;;;;3.65;1.13;;;20.50;99.90;;;;;;4955822;28;20342;-71
2023/08/01 09:29:17;;;;;;;6.20;1.27;;;20.70;99.90;;;;;;4958722;28;20042;-72
2023/08/01 09:31:44;;;;;;;3.38;0.90;;;20.80;99.90;;;;;;4954134;28;20039;-72
2023/08/01 09:34:27;;;;;;;3.97;0.80;;;21.00;99.90;;;;;;4953262;28;20030;-72
2023/08/01 09:37:00;;;;;;;3.53;1.00;;;21.00;99.90;;;;;;4954022;28;20478;-72
2023/08/01 09:39:27;;;;;;;3.50;0.77;;;21.00;99.90;;;;;;4961352;28;20263;-71
2023/08/01 09:41:58;;;;;;;5.47;0.90;;;20.90;99.90;;;;;;4955559;28;20043;-73
2023/08/01 09:44:27;;;;;;;4.55;0.90;;;20.80;99.90;;;;;;4939549;28;20051;-71
2023/08/01 09:47:01;;;;;;;5.00;1.00;;;20.50;99.90;;;;;;4954426;28;20035;-72
2023/08/01 09:49:29;;;;;;;4.47;0.60;;;20.30;99.90;;;;;;4935530;28;20054;-73
2023/08/01 09:51:57;;;;;;;3.25;0.82;;;20.20;99.90;;;;;;4955761;28;20027;-72
2023/08/01 09:54:24;;;;;;;6.38;1.52;;;20.10;99.90;;;;;;4956725;28;20039;-71
2023/08/01 09:56:52;;;;;;;2.10;0.70;;;20.30;99.90;;;;;;4956124;28;20034;-72
2023/08/01 09:59:23;;;;;;;4.18;0.95;;;20.40;99.90;;;;;;4937552;28;20035;-71
2023/08/01 10:01:52;;;;;;;3.83;0.73;;;20.50;99.90;;;;;;4950201;28;20496;-71
2023/08/01 10:04:22;;;;;;;3.88;0.80;;;20.60;99.90;;;;;;4952637;28;20026;-72
2023/08/01 10:06:58;;;;;;;6.38;1.58;;;20.70;99.90;;;;;;4952109;28;20035;-72
2023/08/01 10:09:25;;;;;;;5.13;1.40;;;20.80;99.90;;;;;;4939415;28;20054;-71
2023/08/01 10:11:52;;;;;;;5.80;1.00;;;20.90;99.90;;;;;;4952987;28;20047;-72
2023/08/01 10:14:22;;;;;;;3.50;0.80;;;21.20;99.90;;;;;;4941073;28;20058;-72
2023/08/01 10:16:51;;;;;;;3.20;0.70;;;21.30;99.90;;;;;;4958004;28;20462;-72
2023/08/01 10:19:17;;;;;;;4.57;0.93;;;21.50;99.90;;;;;;4958450;28;20498;-72
2023/08/01 10:21:44;;;;;;;3.95;1.05;;;21.80;99.90;;;;;;4943403;28;20482;-72
2023/08/01 10:24:12;;;;;;;5.50;1.42;;;22.10;99.90;;;;;;4959378;28;20026;-73
2023/08/01 10:26:39;;;;;;;5.43;1.05;;;22.40;99.90;;;;;;4957541;28;20548;-81
2023/08/01 10:29:05;;;;;;;4.28;1.00;;;22.60;99.90;;;;;;4938229;28;20042;-79
2023/08/01 10:31:33;;;;;;;5.22;0.90;;;22.70;99.90;;;;;;4938101;28;20058;-73
2023/08/01 10:34:12;;;;;;;3.22;0.70;;;22.80;99.90;;;;;;4938124;28;20045;-73
2023/08/01 10:36:38;;;;;;;3.88;1.02;;;22.90;99.90;;;;;;4945007;28;20057;-78
2023/08/01 10:39:05;;;;;;;8.32;1.27;;;23.20;99.90;;;;;;4961167;28;20027;-73
2023/08/01 10:41:34;;;;;;;5.15;1.40;;;23.30;99.90;;;;;;4942301;28;20046;-72
2023/08/01 10:44:15;;;;;;;4.22;0.98;;;23.10;99.90;;;;;;4956408;28;20026;-72
2023/08/01 10:46:56;;;;;;;5.30;1.20;;;23.10;99.90;;;;;;4940894;28;20026;-72
2023/08/01 10:49:39;;;;;;;3.85;1.05;;;23.10;99.90;;;;;;4958565;28;20039;-73
2023/08/01 10:52:19;;;;;;;4.85;0.75;;;23.30;99.90;;;;;;4928642;28;20064;-72
2023/08/01 10:54:46;;;;;;;2.92;0.60;;;23.50;99.90;;;;;;4939157;28;20043;-73
2023/08/01 10:57:17;;;;;;;5.63;0.80;;;23.80;99.90;;;;;;4911355;28;20059;-74
2023/08/01 10:59:44;;;;;;;2.50;0.60;;;24.10;99.90;;;;;;4919471;28;20041;-73
2023/08/01 11:02:11;;;;;;;3.67;0.90;;;24.40;99.90;;;;;;4953213;28;20022;-74
2023/08/01 11:04:37;;;;;;;3.50;0.85;;;24.60;99.90;;;;;;4965063;28;20030;-73
2023/08/01 11:07:04;;;;;;;3.00;0.73;;;24.80;99.90;;;;;;4924986;28;20043;-73
2023/08/01 11:09:31;;;;;;;3.17;0.80;;;25.00;99.90;;;;;;4952066;28;20030;-74
2023/08/01 11:11:59;;;;;;;6.25;0.95;;;25.30;99.90;;;;;;4927049;28;20038;-73
2023/08/01 11:14:27;;;;;;;5.30;1.65;;;25.60;99.90;;;;;;4956727;28;20039;-74
2023/08/01 11:16:57;;;;;;;5.05;0.95;;;25.80;99.90;;;;;;4938913;28;20035;-74
2023/08/01 11:19:29;;;;;;;4.88;1.20;;;25.90;99.90;;;;;;4939163;28;20065;-74
2023/08/01 11:21:57;;;;;;;4.45;1.00;;;26.00;99.90;;;;;;4953944;28;20042;-74
2023/08/01 11:24:25;;;;;;;2.95;0.70;;;26.10;99.90;;;;;;4954263;28;20031;-74
2023/08/01 11:26:53;;;;;;;2.42;0.63;;;26.10;99.90;;;;;;4956698;28;20042;-74
2023/08/01 11:29:20;;;;;;;2.10;0.60;;;26.20;99.90;;;;;;4936334;28;20027;-74
2023/08/01 11:31:53;;;;;;;2.72;0.60;;;26.20;99.90;;;;;;4946839;28;20035;-74
2023/08/01 11:34:19;;;;;;;2.30;0.65;;;26.60;99.90;;;;;;4927111;28;20031;-74
2023/08/01 11:36:45;;;;;;;2.67;0.52;;;26.50;99.90;;;;;;4934452;28;20046;-75
2023/08/01 11:39:14;;;;;;;3.10;0.60;;;26.30;99.90;;;;;;4938885;28;20031;-74
2023/08/01 11:41:42;;;;;;;5.45;0.63;;;26.50;99.90;;;;;;4937106;28;20431;-74
2023/08/01 11:44:10;;;;;;;3.22;0.90;;;27.00;99.90;;;;;;4939219;28;20053;-74
2023/08/01 11:46:38;;;;;;;3.40;0.70;;;27.30;99.90;;;;;;4960584;28;20058;-75
2023/08/01 11:49:08;;;;;;;3.28;0.63;;;27.10;99.90;;;;;;4964590;28;20575;-74
2023/08/01 11:51:42;;;;;;;2.05;0.60;;;27.00;99.90;;;;;;4942389;28;20474;-74
2023/08/01 11:54:11;;;;;;;3.47;0.75;;;27.40;99.90;;;;;;4940162;28;20592;-75
2023/08/01 11:56:38;;;;;;;2.42;0.68;;;27.90;99.90;;;;;;4964410;28;20027;-74
2023/08/01 11:59:13;;;;;;;3.65;0.80;;;27.90;99.90;;;;;;4925311;28;20039;-75
2023/08/01 12:01:46;;;;;;;5.03;0.70;;;28.10;99.90;;;;;;4957552;28;20058;-74
2023/08/01 12:04:24;;;;;;;5.88;0.80;;;28.60;99.90;;;;;;4963456;28;20046;-73
2023/08/01 12:06:51;;;;;;;3.92;0.52;;;29.10;99.90;;;;;;4949807;28;20038;-74
2023/08/01 12:09:19;;;;;;;2.72;0.60;;;29.40;98.60;;;;;;4969301;28;20039;-75
2023/08/01 12:11:46;;;;;;;3.83;0.60;;;29.40;95.80;;;;;;4947886;28;20054;-76
2023/08/01 12:14:14;;;;;;;2.60;0.75;;;29.40;95.30;;;;;;4942728;28;20031;-76
2023/08/01 12:16:47;;;;;;;2.28;0.50;;;29.00;94.60;;;;;;4961105;28;20031;-75
2023/08/01 12:19:19;;;;;;;2.20;0.50;;;28.10;95.50;;;;;;4925635;28;20057;-75
2023/08/01 12:21:46;;;;;;;3.60;0.90;;;27.10;96.30;;;;;;4934010;28;20042;-75
2023/08/01 12:24:13;;;;;;;3.70;1.17;;;26.20;97.00;;;;;;4959102;28;20397;-75
2023/08/01 12:26:39;;;;;;;1.88;0.50;;;25.60;97.90;;;;;;4925138;28;20047;-75
2023/08/01 12:29:07;;;;;;;1.73;0.50;;;25.00;98.20;;;;;;4954569;28;20050;-75
2023/08/01 12:31:33;;;;;;;4.38;0.88;;;24.50;98.90;;;;;;4943507;28;20380;-75
2023/08/01 12:34:00;;;;;;;2.90;0.50;;;24.10;99.20;;;;;;4959444;28;20030;-75
2023/08/01 12:36:26;;;;;;;2.33;0.70;;;23.80;99.40;;;;;;4958991;28;20022;-75
2023/08/01 12:38:53;;;;;;;2.63;0.60;;;23.50;99.70;;;;;;4939528;28;20505;-75
2023/08/01 12:41:19;;;;;;;2.63;0.50;;;23.30;99.90;;;;;;4934812;28;20035;-75
2023/08/01 12:43:46;;;;;;;4.10;0.50;;;23.20;99.90;;;;;;4937395;28;20462;-75